ADDS METAR Data INFO
IDs: Format: Raw Decoded Include TAF

Data at: 1318 UTC 11 Dec 2017

KHWV 111256Z AUTO 25006KT 10SM CLR 00/M01 A3003 RMK AO2 SNE25 SLP170 P0000 T00001011
KHWV 111156Z AUTO 28008KT 7SM -SN FEW020 OVC044 01/M02 A3002 RMK AO2 RAB16E30SNB49 SLP167 P0000 60000 T00061022 10022 20006 51012
KHWV 111056Z AUTO 24008KT 10SM OVC060 02/M04 A3001 RMK AO2 SLP163 T00171044
KHWV 110956Z AUTO 24007KT 10SM OVC050 02/M04 A3000 RMK AO2 RAB44E54 SLP161 P0000 T00171044
KHWV 110856Z AUTO 25005KT 10SM BKN080 OVC100 02/M04 A2999 RMK AO2 SLP154 T00171044 56007
KHWV 110756Z AUTO 27005KT 10SM SCT075 OVC095 02/M04 A2999 RMK AO2 SLP155 T00171044
KHWV 110656Z AUTO 25006KT 10SM OVC080 02/M04 A3000 RMK AO2 SLP160 T00171044
KHWV 110556Z AUTO 24005KT 10SM OVC090 02/M05 A3001 RMK AO2 SLP161 T00221050 10022 20017 58003
KHWV 110456Z AUTO 25007KT 10SM BKN090 OVC110 02/M05 A3002 RMK AO2 SLP165 T00221050 400391011
KHWV 110356Z AUTO 24007KT 10SM SCT110 02/M05 A3002 RMK AO2 SLP166 T00221050
KHWV 110256Z AUTO 25008KT 10SM SCT110 02/M04 A3002 RMK AO2 SLP166 T00221044 51008
KHWV 110156Z AUTO 25007KT 10SM CLR 02/M06 A3002 RMK AO2 SLP166 T00221056
KHWV 110056Z AUTO 25008KT 10SM CLR 02/M05 A3001 RMK AO2 SLP163 T00171050
KHWV 102356Z AUTO 24008KT 10SM CLR 02/M04 A2999 RMK AO2 SLP158 T00171044 10039 20017 51018
KHWV 102256Z AUTO 23006KT 10SM CLR 02/M04 A2998 RMK AO2 SLP153 T00171039
KHWV 102156Z AUTO 24003KT 10SM FEW055 02/M04 A2996 RMK AO2 SLP147 T00171039
KHWV 102056Z AUTO 26010KT 10SM CLR 03/M04 A2994 RMK AO2 SLP139 T00331039 53017
KHWV 101956Z AUTO 28010KT 10SM CLR 04/M03 A2991 RMK AO2 SLP130 T00391033
KHWV 101856Z AUTO 27010KT 10SM CLR 04/M03 A2990 RMK AO2 SLP123 T00391028
KHWV 101756Z AUTO 28011KT 10SM CLR 03/M02 A2989 RMK AO2 SLP122 T00331022 10033 21011 58003
KHWV 101656Z AUTO 27008KT 10SM CLR 03/M03 A2989 RMK AO2 SLP123 T00281028
KHWV 101556Z AUTO 27013KT 10SM CLR 02/M03 A2990 RMK AO2 SLP127 T00171028
KHWV 101456Z AUTO 28011KT 10SM CLR 01/M02 A2990 RMK AO2 SLP125 T00111022 51030
KHWV 101356Z AUTO 27008KT 10SM CLR 00/M02 A2988 RMK AO2 SLP118 T00001017
KHWV 101256Z AUTO 27005KT 10SM CLR M01/M02 A2985 RMK AO2 SLP108 T10111017
KHWV 101156Z AUTO 28003KT 10SM CLR M01/M02 A2981 RMK AO2 SLP095 60000 70032 T10111017 10006 21011 53023
KHWV 101056Z AUTO 28005KT 10SM OVC100 00/M01 A2977 RMK AO2 SLP083 T00001011
KHWV 101038Z AUTO 29006KT 10SM SCT017 OVC100 00/M01 A2976 RMK AO2 T00001006
KHWV 100956Z AUTO 29005KT 10SM BKN016 OVC110 01/00 A2974 RMK AO2 SLP073 T00060000
KHWV 100952Z AUTO 28005KT 10SM BKN016 OVC100 01/00 A2974 RMK AO2
KHWV 100856Z AUTO 30007KT 10SM BKN065 OVC090 01/00 A2973 RMK AO2 SLP067 60000 T00060000 51014
KHWV 100834Z AUTO 29007KT 10SM SCT018 OVC070 01/00 A2972 RMK AO2 T00060000
KHWV 100823Z AUTO 28006KT 10SM BKN018 BKN075 OVC095 01/00 A2972 RMK AO2 T00060000
KHWV 100756Z AUTO 28005KT 10SM OVC110 01/00 A2971 RMK AO2 SNB01E26 SLP063 P0000 T00060000
KHWV 100719Z AUTO 27003KT 8SM -SN FEW021 BKN041 OVC120 01/01 A2971 RMK AO2 SNB01 P0000 T00060006
KHWV 100656Z AUTO 29003KT 10SM OVC019 01/01 A2970 RMK AO2 SNB27E45 SLP059 P0000 T00060006
KHWV 100556Z AUTO 33005KT 7SM SCT011 OVC016 01/01 A2968 RMK AO2 SNE44 SLP052 P0000 60007 T00060006 10006 20006 50000
KHWV 100509Z AUTO 32008KT 3SM -SN BR SCT006 OVC012 01/01 A2969 RMK AO2 P0000 T00060006
KHWV 100456Z AUTO 32008KT 3SM -SN BR BKN006 OVC012 01/01 A2969 RMK AO2 SLP056 P0001 T00060006 400280006
KHWV 100415Z AUTO 32007KT 4SM -SN BR SCT006 OVC011 01/01 A2969 RMK AO2 P0000 T00060006
KHWV 100356Z AUTO 32006KT 2 1/2SM -SN BR BKN006 OVC013 01/01 A2969 RMK AO2 CIG 005V009 SLP054 P0002 T00060006
KHWV 100327Z AUTO 33007KT 4SM -SN BR OVC005 01/01 A2969 RMK AO2 P0001 T00060006
KHWV 100313Z AUTO 33005KT 2 1/2SM -SN BR OVC005 01/01 A2970 RMK AO2 P0001 T00060006
KHWV 100306Z AUTO 34005KT 1 3/4SM -SN BR OVC005 01/01 A2969 RMK AO2 P0001 T00060006
KHWV 100256Z AUTO 34005KT 2 1/2SM -SN BR OVC006 01/01 A2968 RMK AO2 SLP052 P0001 60004 T00060006 55003
KHWV 100254Z AUTO 34007KT 2 1/2SM -SN BR OVC006 01/01 A2968 RMK AO2 P0001
KHWV 100208Z AUTO 34006KT 4SM -SN BR BKN005 OVC014 01/01 A2968 RMK AO2 P0000 T00060006
KHWV 100156Z AUTO 35007KT 2 1/2SM -SN BR SCT005 BKN015 OVC019 01/01 A2968 RMK AO2 SLP050 P0001 T00060006
KHWV 100129Z AUTO 36007KT 2 1/2SM -SN BR SCT006 OVC013 01/01 A2969 RMK AO2 P0001 T00060006